createdAt,value
2017-07-22T00:00:56.374Z,19.4
2017-07-22T00:01:56.359Z,19.35
2017-07-22T00:02:56.333Z,19.28
2017-07-22T00:03:56.343Z,19.31
2017-07-22T00:04:56.301Z,19.4
2017-07-22T00:05:56.276Z,19.32
2017-07-22T00:06:56.274Z,19.35
2017-07-22T00:07:56.233Z,19.35
2017-07-22T00:08:55.918Z,19.35
2017-07-22T00:09:56.190Z,19.25
2017-07-22T00:10:56.176Z,19.23
2017-07-22T00:11:56.209Z,19.31
2017-07-22T00:12:56.139Z,19.3
2017-07-22T00:13:56.118Z,19.25
2017-07-22T00:14:56.155Z,19.25
2017-07-22T00:15:56.080Z,19.27
2017-07-22T00:16:55.760Z,19.3
2017-07-22T00:17:56.054Z,19.27
2017-07-22T00:18:56.021Z,19.24
2017-07-22T00:19:55.757Z,19.25
2017-07-22T00:20:55.985Z,19.2
2017-07-22T00:21:55.970Z,19.23
2017-07-22T00:22:55.945Z,19.16
2017-07-22T00:23:55.926Z,19.16
2017-07-22T00:24:55.917Z,19.23
2017-07-22T00:25:55.892Z,19.27
2017-07-22T00:26:55.862Z,19.21
2017-07-22T00:27:55.555Z,19.16
2017-07-22T00:28:55.826Z,19.17
2017-07-22T00:29:55.806Z,19.28
2017-07-22T00:30:55.794Z,19.16
2017-07-22T00:31:55.785Z,19.24
2017-07-22T00:32:55.751Z,19.3
2017-07-22T00:33:55.730Z,19.25
2017-07-22T00:34:55.708Z,19.16
2017-07-22T00:35:55.685Z,19.16
2017-07-22T00:36:55.674Z,19.27
2017-07-22T00:37:55.650Z,19.2
2017-07-22T00:38:55.634Z,19.28
2017-07-22T00:39:55.616Z,19.16
2017-07-22T00:40:55.590Z,19.24
2017-07-22T00:41:55.580Z,19.27
2017-07-22T00:42:55.593Z,19.13
2017-07-22T00:43:55.538Z,19.23
2017-07-22T00:44:55.520Z,19.23
2017-07-22T00:45:55.496Z,19.2
2017-07-22T00:46:55.170Z,19.24
2017-07-22T00:47:55.462Z,19.27
2017-07-22T00:48:55.436Z,19.21
2017-07-22T00:49:55.434Z,19.16
2017-07-22T00:50:55.449Z,19.21
2017-07-22T00:51:55.086Z,19.17
2017-07-22T00:52:55.360Z,19.24
2017-07-22T00:53:55.335Z,19.17
2017-07-22T00:54:55.323Z,19.23
2017-07-22T00:55:55.319Z,19.2
2017-07-22T00:56:55.282Z,19.15
2017-07-22T00:57:55.325Z,19.16
2017-07-22T00:58:55.290Z,19.2
2017-07-22T00:59:55.226Z,19.13
2017-07-22T01:00:55.199Z,19.2
2017-07-22T01:01:54.886Z,19.07
2017-07-22T01:02:55.165Z,19.27
2017-07-22T01:03:55.143Z,19.21
2017-07-22T01:04:55.130Z,19.16
2017-07-22T01:05:54.802Z,19.21
2017-07-22T01:06:55.091Z,19.24
2017-07-22T01:07:55.068Z,19.16
2017-07-22T01:08:55.047Z,19.15
2017-07-22T01:09:55.076Z,19.2
2017-07-22T01:10:55.009Z,19.15
2017-07-22T01:11:54.993Z,19.16
2017-07-22T01:12:54.679Z,19.2
2017-07-22T01:13:54.645Z,19.15
2017-07-22T01:14:54.924Z,19.13
2017-07-22T01:15:54.605Z,19.1
2017-07-22T01:16:54.889Z,19.15
2017-07-22T01:17:54.570Z,19.13
2017-07-22T01:18:54.904Z,19.12
2017-07-22T01:19:54.830Z,19.06
2017-07-22T01:20:54.821Z,19.07
2017-07-22T01:21:54.788Z,19.1
2017-07-22T01:22:54.768Z,19.06
2017-07-22T01:23:54.752Z,19.12
2017-07-22T01:24:54.726Z,19.12
2017-07-22T01:25:54.718Z,19.13
2017-07-22T01:26:54.691Z,18.96
2017-07-22T01:27:54.674Z,19.07
2017-07-22T01:28:54.655Z,19.09
2017-07-22T01:29:54.640Z,19.09
2017-07-22T01:30:54.622Z,18.96
2017-07-22T01:31:54.597Z,18.97
2017-07-22T01:32:54.576Z,18.99
2017-07-22T01:33:54.560Z,19.01
2017-07-22T01:34:54.538Z,18.99
2017-07-22T01:35:54.220Z,18.96
2017-07-22T01:36:54.496Z,19.02
2017-07-22T01:37:54.485Z,18.97
2017-07-22T01:38:54.455Z,18.93
2017-07-22T01:39:54.443Z,18.97
2017-07-22T01:40:54.411Z,18.99
2017-07-22T01:41:54.395Z,18.89
2017-07-22T01:42:54.427Z,19.01
2017-07-22T01:43:54.356Z,19.06
2017-07-22T01:44:54.336Z,19.06
2017-07-22T01:45:54.022Z,18.93
2017-07-22T01:46:54.307Z,18.89
2017-07-22T01:47:54.276Z,19.02
2017-07-22T01:48:54.263Z,18.96
2017-07-22T01:49:54.233Z,18.96
2017-07-22T01:50:54.238Z,18.97
2017-07-22T01:51:54.207Z,18.93
2017-07-22T01:52:53.875Z,18.97
2017-07-22T01:53:53.852Z,18.96
2017-07-22T01:54:54.141Z,19.01
2017-07-22T01:55:54.131Z,18.96
2017-07-22T01:56:54.098Z,18.97
2017-07-22T01:57:54.088Z,18.96
2017-07-22T01:58:54.113Z,19.02
2017-07-22T01:59:54.039Z,18.97
2017-07-22T02:00:53.730Z,18.93
2017-07-22T02:01:54.007Z,18.96
2017-07-22T02:02:53.984Z,18.93
2017-07-22T02:03:53.962Z,19.06
2017-07-22T02:04:53.945Z,18.94
2017-07-22T02:05:53.627Z,19.01
2017-07-22T02:06:53.899Z,19.06
2017-07-22T02:07:53.885Z,19.02
2017-07-22T02:08:53.866Z,18.99
2017-07-22T02:09:53.907Z,19.05
2017-07-22T02:10:53.828Z,19.02
2017-07-22T02:11:53.812Z,19.07
2017-07-22T02:12:53.785Z,19.09
2017-07-22T02:13:53.766Z,18.97
2017-07-22T02:14:53.754Z,19.01
2017-07-22T02:15:53.786Z,19.12
2017-07-22T02:16:53.704Z,19.09
2017-07-22T02:17:53.695Z,19.1
2017-07-22T02:18:53.664Z,19.13
2017-07-22T02:19:53.655Z,19.09
2017-07-22T02:20:53.670Z,19.09
2017-07-22T02:21:53.612Z,19.13
2017-07-22T02:22:53.595Z,19.13
2017-07-22T02:23:53.574Z,19.13
2017-07-22T02:24:53.549Z,19.17
2017-07-22T02:25:53.535Z,19.16
2017-07-22T02:26:53.514Z,19.17
2017-07-22T02:27:53.491Z,19.13
2017-07-22T02:28:53.482Z,19.09
2017-07-22T02:29:53.451Z,19.2
2017-07-22T02:30:53.447Z,19.12
2017-07-22T02:31:53.422Z,19.15
2017-07-22T02:32:53.396Z,19.17
2017-07-22T02:33:53.368Z,19.13
2017-07-22T02:34:53.054Z,19.09
2017-07-22T02:35:53.337Z,19.17
2017-07-22T02:36:53.320Z,19.17
2017-07-22T02:37:53.305Z,19.13
2017-07-22T02:38:53.281Z,19.17
2017-07-22T02:39:53.283Z,19.17
2017-07-22T02:40:53.237Z,19.28
2017-07-22T02:41:52.925Z,19.3
2017-07-22T02:42:53.199Z,19.1
2017-07-22T02:43:53.173Z,19.25
2017-07-22T02:44:53.154Z,19.27
2017-07-22T02:45:53.144Z,19.28
2017-07-22T02:46:53.118Z,19.2
2017-07-22T02:47:53.100Z,19.3
2017-07-22T02:48:53.081Z,19.3
2017-07-22T02:49:53.076Z,19.28
2017-07-22T02:50:52.764Z,19.39
2017-07-22T02:51:53.020Z,19.34
2017-07-22T02:52:52.995Z,19.4
2017-07-22T02:53:52.676Z,19.4
2017-07-22T02:54:52.663Z,19.42
2017-07-22T02:55:52.953Z,19.46
2017-07-22T02:56:52.916Z,19.27
2017-07-22T02:57:52.895Z,19.2
2017-07-22T02:58:52.891Z,19.15
2017-07-22T02:59:52.264Z,18.96
2017-07-22T03:00:52.837Z,18.76
2017-07-22T03:01:52.524Z,18.59
2017-07-22T03:02:52.861Z,18.31
2017-07-22T03:03:52.784Z,18.13
2017-07-22T03:04:52.762Z,18.09
2017-07-22T03:05:52.743Z,17.91
2017-07-22T03:06:52.730Z,17.84
2017-07-22T03:07:52.703Z,17.68
2017-07-22T03:08:52.684Z,17.62
2017-07-22T03:09:52.678Z,17.54
2017-07-22T03:10:52.643Z,17.47
2017-07-22T03:11:52.622Z,17.46
2017-07-22T03:12:52.612Z,17.45
2017-07-22T03:13:52.585Z,17.32
2017-07-22T03:14:52.559Z,17.33
2017-07-22T03:15:52.541Z,17.4
2017-07-22T03:16:52.217Z,17.38
2017-07-22T03:17:52.494Z,17.33
2017-07-22T03:18:52.483Z,17.3
2017-07-22T03:19:52.465Z,17.32
2017-07-22T03:20:52.490Z,17.3
2017-07-22T03:21:52.479Z,17.28
2017-07-22T03:22:52.398Z,17.25
2017-07-22T03:23:52.382Z,17.33
2017-07-22T03:24:52.058Z,17.35
2017-07-22T03:25:52.338Z,17.35
2017-07-22T03:26:52.315Z,17.27
2017-07-22T03:27:52.298Z,17.35
2017-07-22T03:28:52.278Z,17.32
2017-07-22T03:29:52.252Z,17.38
2017-07-22T03:30:52.248Z,17.35
2017-07-22T03:31:52.217Z,17.27
2017-07-22T03:32:52.197Z,17.27
2017-07-22T03:33:52.177Z,17.33
2017-07-22T03:34:52.155Z,17.21
2017-07-22T03:35:51.884Z,17.33
2017-07-22T03:36:52.111Z,17.35
2017-07-22T03:37:52.094Z,17.25
2017-07-22T03:38:52.078Z,17.32
2017-07-22T03:39:52.059Z,17.27
2017-07-22T03:40:52.032Z,17.33
2017-07-22T03:41:52.017Z,17.33
2017-07-22T03:42:51.988Z,17.3
2017-07-22T03:43:51.967Z,17.36
2017-07-22T03:44:51.647Z,17.33
2017-07-22T03:45:51.626Z,17.32
2017-07-22T03:46:51.907Z,17.42
2017-07-22T03:47:51.893Z,17.28
2017-07-22T03:48:51.562Z,17.4
2017-07-22T03:49:51.855Z,17.38
2017-07-22T03:50:51.828Z,17.38
2017-07-22T03:51:51.558Z,17.38
2017-07-22T03:52:51.786Z,17.36
2017-07-22T03:53:51.766Z,17.43
2017-07-22T03:54:51.749Z,17.36
2017-07-22T03:55:51.731Z,17.27
2017-07-22T03:56:51.701Z,17.4
2017-07-22T03:57:51.690Z,17.45
2017-07-22T03:58:51.662Z,17.35
2017-07-22T03:59:51.645Z,17.36
2017-07-22T04:00:51.623Z,17.42
2017-07-22T04:01:51.607Z,17.36
2017-07-22T04:02:51.583Z,17.33
2017-07-22T04:03:51.566Z,17.39
2017-07-22T04:04:51.543Z,17.38
2017-07-22T04:05:51.528Z,17.33
2017-07-22T04:06:51.496Z,17.32
2017-07-22T04:07:51.491Z,17.35
2017-07-22T04:08:51.460Z,17.3
2017-07-22T04:09:51.439Z,17.27
2017-07-22T04:10:51.420Z,17.3
2017-07-22T04:11:51.098Z,17.22
2017-07-22T04:12:51.377Z,17.2
2017-07-22T04:13:51.364Z,17.22
2017-07-22T04:14:51.338Z,17.24
2017-07-22T04:15:51.324Z,17.27
2017-07-22T04:16:51.311Z,17.25
2017-07-22T04:17:51.286Z,17.28
2017-07-22T04:18:51.254Z,17.24
2017-07-22T04:19:51.236Z,17.27
2017-07-22T04:20:50.917Z,17.25
2017-07-22T04:21:51.196Z,17.21
2017-07-22T04:22:51.177Z,17.24
2017-07-22T04:23:51.156Z,17.1
2017-07-22T04:24:51.135Z,17.17
2017-07-22T04:25:51.120Z,17.15
2017-07-22T04:26:51.100Z,17.14
2017-07-22T04:27:51.079Z,17.1
2017-07-22T04:28:51.052Z,17.12
2017-07-22T04:29:51.039Z,17.12
2017-07-22T04:30:50.715Z,17.15
2017-07-22T04:31:50.741Z,17.17
2017-07-22T04:32:50.975Z,17.15
2017-07-22T04:33:50.960Z,17.14
2017-07-22T04:34:50.929Z,17.2
2017-07-22T04:35:50.909Z,17.17
2017-07-22T04:36:50.892Z,17.12
2017-07-22T04:37:50.865Z,17.15
2017-07-22T04:38:50.604Z,17.18
2017-07-22T04:39:50.833Z,17.18
2017-07-22T04:40:50.808Z,17.15
2017-07-22T04:41:50.797Z,17.27
2017-07-22T04:42:50.769Z,17.3
2017-07-22T04:43:50.751Z,17.27
2017-07-22T04:44:50.792Z,17.17
2017-07-22T04:45:50.709Z,17.25
2017-07-22T04:46:50.687Z,17.22
2017-07-22T04:47:50.664Z,17.21
2017-07-22T04:48:50.650Z,17.18
2017-07-22T04:49:50.629Z,17.17
2017-07-22T04:50:50.604Z,17.18
2017-07-22T04:51:50.588Z,17.24
2017-07-22T04:52:50.263Z,17.24
2017-07-22T04:53:50.553Z,17.25
2017-07-22T04:54:50.524Z,17.2
2017-07-22T04:55:50.501Z,17.24
2017-07-22T04:56:50.530Z,17.27
2017-07-22T04:57:50.170Z,17.17
2017-07-22T04:58:49.862Z,17.15
2017-07-22T04:59:50.432Z,17.18
2017-07-22T05:00:50.397Z,17.2
2017-07-22T05:01:50.390Z,17.22
2017-07-22T05:02:50.359Z,17.1
2017-07-22T05:03:50.345Z,17.07
2017-07-22T05:04:50.324Z,17.1
2017-07-22T05:05:50.297Z,17.2
2017-07-22T05:06:50.284Z,17.12
2017-07-22T05:07:50.268Z,17.2
2017-07-22T05:08:50.236Z,17.18
2017-07-22T05:09:50.223Z,17.21
2017-07-22T05:10:50.194Z,17.18
2017-07-22T05:11:50.188Z,17.14
2017-07-22T05:12:50.159Z,17.24
2017-07-22T05:13:50.137Z,17.14
2017-07-22T05:14:50.114Z,17.1
2017-07-22T05:15:50.100Z,17.2
2017-07-22T05:16:49.775Z,17.1
2017-07-22T05:17:50.060Z,17.21
2017-07-22T05:18:50.035Z,17.1
2017-07-22T05:19:49.764Z,17.14
2017-07-22T05:20:49.990Z,17.09
2017-07-22T05:21:49.676Z,17.09
2017-07-22T05:22:49.958Z,17.14
2017-07-22T05:23:49.939Z,17.12
2017-07-22T05:24:49.912Z,17.12
2017-07-22T05:25:49.894Z,17.1
2017-07-22T05:26:49.937Z,17.09
2017-07-22T05:27:49.850Z,17.14
2017-07-22T05:28:49.527Z,17.14
2017-07-22T05:29:49.816Z,17.14
2017-07-22T05:30:49.841Z,17.14
2017-07-22T05:31:49.773Z,17.21
2017-07-22T05:32:49.752Z,17.2
2017-07-22T05:33:49.749Z,17.14
2017-07-22T05:34:49.713Z,17.21
2017-07-22T05:35:49.696Z,17.22
2017-07-22T05:36:49.677Z,17.24
2017-07-22T05:37:49.345Z,17.32
2017-07-22T05:38:49.638Z,17.28
2017-07-22T05:39:49.611Z,17.28
2017-07-22T05:40:49.601Z,17.27
2017-07-22T05:41:49.568Z,17.24
2017-07-22T05:42:49.553Z,17.3
2017-07-22T05:43:49.579Z,17.32
2017-07-22T05:44:49.515Z,17.38
2017-07-22T05:45:49.492Z,17.38
2017-07-22T05:46:49.469Z,17.38
2017-07-22T05:47:49.444Z,17.3
2017-07-22T05:48:49.422Z,17.33
2017-07-22T05:49:49.401Z,17.4
2017-07-22T05:50:49.382Z,17.43
2017-07-22T05:51:49.363Z,17.46
2017-07-22T05:52:49.351Z,17.42
2017-07-22T05:53:49.374Z,17.32
2017-07-22T05:54:49.315Z,17.27
2017-07-22T05:55:49.288Z,17.39
2017-07-22T05:56:48.665Z,17.43
2017-07-22T05:57:48.974Z,17.36
2017-07-22T05:58:49.236Z,17.42
2017-07-22T05:59:49.207Z,17.42
2017-07-22T06:00:49.180Z,17.43
2017-07-22T06:01:49.165Z,17.43
2017-07-22T06:02:49.142Z,17.55
2017-07-22T06:03:49.124Z,17.53
2017-07-22T06:04:49.105Z,17.6
2017-07-22T06:05:48.790Z,17.51
2017-07-22T06:06:49.066Z,17.62
2017-07-22T06:07:49.040Z,17.62
2017-07-22T06:08:49.029Z,17.54
2017-07-22T06:09:49.005Z,17.63
2017-07-22T06:10:49.034Z,17.63
2017-07-22T06:11:48.973Z,17.63
2017-07-22T06:12:48.939Z,17.73
2017-07-22T06:13:48.926Z,17.71
2017-07-22T06:14:48.905Z,17.71
2017-07-22T06:15:48.883Z,17.8
2017-07-22T06:16:48.864Z,17.81
2017-07-22T06:17:48.847Z,17.86
2017-07-22T06:18:48.821Z,17.79
2017-07-22T06:19:48.805Z,17.92
2017-07-22T06:20:48.791Z,17.92
2017-07-22T06:21:48.771Z,17.99
2017-07-22T06:22:48.747Z,17.94
2017-07-22T06:23:48.725Z,17.99
2017-07-22T06:24:48.705Z,17.87
2017-07-22T06:25:48.388Z,18.09
2017-07-22T06:26:48.667Z,18.05
2017-07-22T06:27:48.650Z,18.04
2017-07-22T06:28:48.321Z,18.09
2017-07-22T06:29:48.611Z,18.02
2017-07-22T06:30:48.594Z,18.01
2017-07-22T06:31:48.570Z,18.07
2017-07-22T06:32:48.549Z,18.11
2017-07-22T06:33:48.536Z,18.25
2017-07-22T06:34:48.557Z,18.32
2017-07-22T06:35:48.493Z,18.38
2017-07-22T06:36:48.172Z,18.54
2017-07-22T06:37:48.457Z,18.64
2017-07-22T06:38:48.430Z,18.62
2017-07-22T06:39:48.413Z,18.71
2017-07-22T06:40:48.395Z,18.74
2017-07-22T06:41:48.374Z,18.89
2017-07-22T06:42:48.354Z,19.12
2017-07-22T06:43:48.334Z,19.57
2017-07-22T06:44:48.330Z,19.75
2017-07-22T06:45:47.999Z,20.07
2017-07-22T06:46:48.281Z,20.25
2017-07-22T06:47:48.259Z,20.72
2017-07-22T06:48:48.253Z,20.79
2017-07-22T06:49:48.228Z,20.97
2017-07-22T06:50:48.217Z,21.12
2017-07-22T06:51:48.192Z,21.43
2017-07-22T06:52:48.171Z,21.56
2017-07-22T06:53:48.163Z,21.61
2017-07-22T06:54:48.151Z,21.77
2017-07-22T06:55:48.127Z,22.04
2017-07-22T06:56:48.133Z,22.26
2017-07-22T06:57:48.107Z,22.57
2017-07-22T06:58:48.078Z,22.54
2017-07-22T06:59:48.066Z,22.56
2017-07-22T07:00:48.035Z,22.54
2017-07-22T07:01:48.037Z,22.69
2017-07-22T07:02:48.015Z,22.84
2017-07-22T07:03:48.006Z,23.04
2017-07-22T07:04:47.990Z,23.18
2017-07-22T07:05:47.975Z,23.29
2017-07-22T07:06:47.966Z,23.23
2017-07-22T07:07:47.964Z,23.25
2017-07-22T07:08:47.637Z,23.22
2017-07-22T07:09:47.929Z,23.25
2017-07-22T07:10:47.920Z,23.47
2017-07-22T07:11:47.897Z,23.6
2017-07-22T07:12:47.579Z,23.68
2017-07-22T07:13:48.119Z,23.62
2017-07-22T07:14:47.862Z,23.63
2017-07-22T07:15:47.843Z,23.87
2017-07-22T07:16:47.842Z,24.02
2017-07-22T07:17:47.845Z,24.12
2017-07-22T07:18:47.817Z,24.26
2017-07-22T07:19:47.498Z,24.37
2017-07-22T07:20:47.795Z,24.45
2017-07-22T07:21:47.782Z,24.52
2017-07-22T07:22:47.768Z,24.55
2017-07-22T07:23:47.754Z,24.61
2017-07-22T07:24:47.749Z,24.75
2017-07-22T07:25:47.745Z,24.9
2017-07-22T07:26:47.728Z,24.94
2017-07-22T07:27:47.702Z,24.71
2017-07-22T07:28:47.404Z,24.67
2017-07-22T07:29:47.683Z,24.75
2017-07-22T07:30:47.682Z,24.8
2017-07-22T07:31:47.667Z,25.08
2017-07-22T07:32:47.662Z,25.26
2017-07-22T07:33:47.645Z,25.17
2017-07-22T07:34:47.632Z,24.99
2017-07-22T07:35:47.639Z,24.94
2017-07-22T07:36:47.612Z,24.9
2017-07-22T07:37:47.661Z,24.98
2017-07-22T07:38:47.591Z,25.23
2017-07-22T07:39:47.580Z,25.26
2017-07-22T07:40:47.571Z,25.16
2017-07-22T07:41:47.578Z,25.12
2017-07-22T07:42:47.573Z,25.12
2017-07-22T07:43:47.547Z,25.19
2017-07-22T07:44:47.553Z,25.38
2017-07-22T07:45:47.531Z,25.6
2017-07-22T07:46:47.531Z,25.79
2017-07-22T07:47:47.216Z,25.81
2017-07-22T07:48:47.493Z,25.79
2017-07-22T07:49:47.488Z,25.72
2017-07-22T07:50:47.482Z,25.34
2017-07-22T07:51:47.469Z,25.2
2017-07-22T07:52:47.463Z,25.31
2017-07-22T07:53:47.455Z,25.41
2017-07-22T07:54:47.439Z,25.34
2017-07-22T07:55:47.447Z,25.29
2017-07-22T07:56:47.421Z,25.31
2017-07-22T07:57:47.408Z,25.53
2017-07-22T07:58:47.402Z,25.76
2017-07-22T07:59:47.409Z,25.96
2017-07-22T08:00:47.392Z,26.19
2017-07-22T08:01:47.128Z,26.28
2017-07-22T08:02:47.072Z,26.41
2017-07-22T08:03:47.362Z,26.39
2017-07-22T08:04:47.044Z,26.42
2017-07-22T08:05:47.352Z,26.54
2017-07-22T08:06:47.347Z,26.56
2017-07-22T08:07:47.334Z,26.75
2017-07-22T08:08:47.324Z,26.75
2017-07-22T08:09:47.315Z,26.73
2017-07-22T08:10:47.308Z,26.68
2017-07-22T08:11:46.995Z,26.5
2017-07-22T08:12:47.298Z,26.32
2017-07-22T08:13:47.341Z,26.42
2017-07-22T08:14:47.272Z,26.53
2017-07-22T08:15:46.978Z,26.68
2017-07-22T08:16:47.504Z,26.61
2017-07-22T08:17:46.944Z,26.59
2017-07-22T08:18:47.249Z,26.68
2017-07-22T08:19:47.236Z,26.68
2017-07-22T08:20:47.223Z,26.54
2017-07-22T08:21:47.216Z,26.46
2017-07-22T08:22:46.910Z,26.31
2017-07-22T08:23:47.209Z,26.38
2017-07-22T08:24:47.221Z,26.64
2017-07-22T08:25:47.196Z,27.08
2017-07-22T08:26:47.192Z,27.25
2017-07-22T08:27:47.184Z,27.28
2017-07-22T08:28:46.873Z,27.2
2017-07-22T08:29:47.173Z,27.13
2017-07-22T08:30:47.169Z,27.27
2017-07-22T08:31:47.162Z,27.28
2017-07-22T08:32:47.135Z,27.11
2017-07-22T08:33:47.132Z,26.98
2017-07-22T08:34:47.132Z,27.02
2017-07-22T08:35:47.132Z,27.2
2017-07-22T08:36:47.112Z,27.34
2017-07-22T08:37:47.101Z,27.68
2017-07-22T08:38:47.142Z,27.76
2017-07-22T08:39:47.091Z,27.98
2017-07-22T08:40:47.131Z,28.36
2017-07-22T08:41:47.089Z,28.32
2017-07-22T08:42:47.080Z,28.27
2017-07-22T08:43:46.761Z,28.23
2017-07-22T08:44:47.050Z,28.02
2017-07-22T08:45:47.055Z,27.87
2017-07-22T08:46:47.042Z,27.88
2017-07-22T08:47:47.045Z,27.88
2017-07-22T08:48:47.030Z,28.06
2017-07-22T08:49:47.020Z,28.35
2017-07-22T08:50:47.025Z,28.67
2017-07-22T08:51:47.015Z,28.94
2017-07-22T08:52:47.007Z,29.21
2017-07-22T08:53:47.001Z,29.66
2017-07-22T08:54:46.988Z,29.7
2017-07-22T08:55:46.987Z,29.94
2017-07-22T08:56:47.043Z,30.22
2017-07-22T08:57:46.667Z,30.08
2017-07-22T08:58:46.665Z,30.03
2017-07-22T08:59:46.955Z,29.86
2017-07-22T09:00:46.952Z,29.74
2017-07-22T09:01:46.954Z,29.84
2017-07-22T09:02:46.638Z,30.01
2017-07-22T09:03:46.934Z,30.16
2017-07-22T09:04:46.924Z,30.45
2017-07-22T09:05:46.926Z,30.67
2017-07-22T09:06:46.911Z,30.7
2017-07-22T09:07:46.907Z,30.72
2017-07-22T09:08:46.903Z,30.82
2017-07-22T09:09:46.892Z,30.93
2017-07-22T09:10:46.897Z,30.98
2017-07-22T09:11:46.885Z,30.98
2017-07-22T09:12:46.881Z,31.15
2017-07-22T09:13:46.866Z,31.32
2017-07-22T09:14:46.862Z,31.35
2017-07-22T09:15:46.857Z,31.32
2017-07-22T09:16:46.848Z,31.38
2017-07-22T09:17:46.849Z,31.47
2017-07-22T09:18:46.842Z,31.49
2017-07-22T09:19:46.840Z,31.64
2017-07-22T09:20:46.829Z,31.82
2017-07-22T09:21:46.828Z,31.64
2017-07-22T09:22:46.831Z,31.49
2017-07-22T09:23:46.820Z,31.2
2017-07-22T09:24:46.508Z,31.05
2017-07-22T09:25:46.801Z,31.3
2017-07-22T09:26:46.504Z,31.15
2017-07-22T09:27:46.787Z,31.19
2017-07-22T09:28:46.781Z,31.07
2017-07-22T09:29:46.778Z,31.16
2017-07-22T09:30:46.472Z,31.05
2017-07-22T09:31:46.472Z,30.93
2017-07-22T09:32:46.762Z,30.86
2017-07-22T09:33:46.826Z,31
2017-07-22T09:34:46.755Z,31.25
2017-07-22T09:35:46.743Z,31.2
2017-07-22T09:36:46.740Z,31.03
2017-07-22T09:37:46.732Z,31.01
2017-07-22T09:38:46.730Z,31.03
2017-07-22T09:39:46.720Z,30.79
2017-07-22T09:40:46.728Z,30.61
2017-07-22T09:41:46.703Z,30.72
2017-07-22T09:42:46.706Z,30.97
2017-07-22T09:43:46.694Z,31.05
2017-07-22T09:44:46.699Z,31.34
2017-07-22T09:45:46.696Z,31.47
2017-07-22T09:46:46.686Z,31.46
2017-07-22T09:47:46.672Z,31.2
2017-07-22T09:48:46.726Z,30.91
2017-07-22T09:49:46.414Z,29.97
2017-07-22T09:50:46.653Z,29.78
2017-07-22T09:51:46.657Z,29.71
2017-07-22T09:52:46.648Z,29.99
2017-07-22T09:53:46.638Z,30.11
2017-07-22T09:54:46.643Z,30.25
2017-07-22T09:55:46.322Z,30.38
2017-07-22T09:56:46.623Z,30.38
2017-07-22T09:57:46.628Z,30.37
2017-07-22T09:58:46.617Z,30.32
2017-07-22T09:59:46.595Z,30.23
2017-07-22T10:00:46.594Z,30.34
2017-07-22T10:01:46.585Z,30.56
2017-07-22T10:02:46.608Z,30.78
2017-07-22T10:03:46.575Z,31
2017-07-22T10:04:46.564Z,31.2
2017-07-22T10:05:46.571Z,31.27
2017-07-22T10:06:46.555Z,31.35
2017-07-22T10:07:46.577Z,31.37
2017-07-22T10:08:46.537Z,31.45
2017-07-22T10:09:46.528Z,31.32
2017-07-22T10:10:46.527Z,31.52
2017-07-22T10:11:46.523Z,31.57
2017-07-22T10:12:46.513Z,31.6
2017-07-22T10:13:46.509Z,31.56
2017-07-22T10:14:46.508Z,31.54
2017-07-22T10:15:46.529Z,31.35
2017-07-22T10:16:46.498Z,31.13
2017-07-22T10:17:46.491Z,30.97
2017-07-22T10:18:46.485Z,30.68
2017-07-22T10:19:46.470Z,30.83
2017-07-22T10:20:46.472Z,30.88
2017-07-22T10:21:46.457Z,30.91
2017-07-22T10:22:46.458Z,30.97
2017-07-22T10:23:46.451Z,30.88
2017-07-22T10:24:46.504Z,31.07
2017-07-22T10:25:46.144Z,31.04
2017-07-22T10:26:46.433Z,31.12
2017-07-22T10:27:46.428Z,31.38
2017-07-22T10:28:46.727Z,31.68
2017-07-22T10:29:46.417Z,31.9
2017-07-22T10:30:46.409Z,31.98
2017-07-22T10:31:46.407Z,32.13
2017-07-22T10:32:46.399Z,32.13
2017-07-22T10:33:46.470Z,32.28
2017-07-22T10:34:46.391Z,32.28
2017-07-22T10:35:46.376Z,32.31
2017-07-22T10:36:46.381Z,32.29
2017-07-22T10:37:46.365Z,32.13
2017-07-22T10:38:46.363Z,31.99
2017-07-22T10:39:46.408Z,32.07
2017-07-22T10:40:46.355Z,32.31
2017-07-22T10:41:46.045Z,32.29
2017-07-22T10:42:46.346Z,32.35
2017-07-22T10:43:46.338Z,32.46
2017-07-22T10:44:46.339Z,32.51
2017-07-22T10:45:46.340Z,32.53
2017-07-22T10:46:46.330Z,32.53
2017-07-22T10:47:46.333Z,32.56
2017-07-22T10:48:46.321Z,32.43
2017-07-22T10:49:46.313Z,32.36
2017-07-22T10:50:46.312Z,32.25
2017-07-22T10:51:46.313Z,31.92
2017-07-22T10:52:46.294Z,31.4
2017-07-22T10:53:46.298Z,30.79
2017-07-22T10:54:46.283Z,30.3
2017-07-22T10:55:46.274Z,30.54
2017-07-22T10:56:46.267Z,30.73
2017-07-22T10:57:46.269Z,30.83
2017-07-22T10:58:46.254Z,31
2017-07-22T10:59:45.945Z,30.93
2017-07-22T11:00:45.960Z,30.98
2017-07-22T11:01:46.241Z,31.09
2017-07-22T11:02:46.246Z,31.41
2017-07-22T11:03:46.227Z,31.71
2017-07-22T11:04:46.226Z,31.92
2017-07-22T11:05:46.218Z,32.1
2017-07-22T11:06:46.202Z,32.03
2017-07-22T11:07:46.209Z,31.99
2017-07-22T11:08:46.197Z,31.99
2017-07-22T11:09:46.187Z,32.29
2017-07-22T11:10:45.893Z,32.28
2017-07-22T11:11:46.214Z,32.12
2017-07-22T11:12:46.189Z,31.99
2017-07-22T11:13:46.178Z,31.92
2017-07-22T11:14:46.194Z,31.91
2017-07-22T11:15:46.161Z,31.52
2017-07-22T11:16:46.154Z,31.12
2017-07-22T11:17:46.147Z,30.91
2017-07-22T11:18:46.142Z,30.56
2017-07-22T11:19:45.828Z,30.29
2017-07-22T11:20:46.131Z,30.13
2017-07-22T11:21:46.124Z,29.84
2017-07-22T11:22:46.119Z,29.71
2017-07-22T11:23:46.112Z,29.51
2017-07-22T11:24:46.106Z,29.47
2017-07-22T11:25:45.798Z,29.44
2017-07-22T11:26:46.090Z,29.39
2017-07-22T11:27:45.790Z,29.26
2017-07-22T11:28:46.076Z,29.29
2017-07-22T11:29:46.059Z,29.18
2017-07-22T11:30:45.753Z,29.03
2017-07-22T11:31:46.056Z,29.07
2017-07-22T11:32:46.045Z,29.1
2017-07-22T11:33:45.732Z,28.92
2017-07-22T11:34:46.011Z,28.83
2017-07-22T11:35:46.003Z,28.72
2017-07-22T11:36:45.998Z,28.69
2017-07-22T11:37:45.997Z,28.42
2017-07-22T11:38:45.985Z,28.33
2017-07-22T11:39:45.962Z,28.24
2017-07-22T11:40:45.949Z,27.98
2017-07-22T11:41:45.942Z,27.88
2017-07-22T11:42:45.925Z,27.66
2017-07-22T11:43:46.039Z,27.68
2017-07-22T11:44:45.911Z,27.45
2017-07-22T11:45:45.899Z,27.42
2017-07-22T11:46:45.896Z,27.43
2017-07-22T11:47:45.866Z,27.43
2017-07-22T11:48:45.568Z,27.35
2017-07-22T11:49:45.852Z,27.46
2017-07-22T11:50:45.888Z,27.53
2017-07-22T11:51:45.825Z,27.62
2017-07-22T11:52:45.799Z,27.65
2017-07-22T11:53:45.792Z,27.68
2017-07-22T11:54:45.778Z,27.77
2017-07-22T11:55:45.763Z,27.72
2017-07-22T11:56:45.746Z,27.81
2017-07-22T11:57:46.000Z,27.77
2017-07-22T11:58:45.724Z,27.63
2017-07-22T11:59:45.417Z,27.59
2017-07-22T12:00:45.703Z,27.55
2017-07-22T12:01:45.682Z,27.59
2017-07-22T12:02:45.718Z,27.5
2017-07-22T12:03:45.670Z,27.52
2017-07-22T12:04:45.346Z,27.52
2017-07-22T12:05:45.633Z,27.5
2017-07-22T12:06:45.309Z,27.5
2017-07-22T12:07:45.603Z,27.48
2017-07-22T12:08:45.595Z,27.53
2017-07-22T12:09:45.586Z,27.46
2017-07-22T12:10:44.963Z,27.5
2017-07-22T12:11:45.554Z,27.5
2017-07-22T12:12:45.533Z,27.59
2017-07-22T12:13:45.214Z,27.72
2017-07-22T12:14:45.510Z,27.71
2017-07-22T12:15:45.491Z,27.81
2017-07-22T12:16:45.469Z,27.8
2017-07-22T12:17:45.458Z,27.72
2017-07-22T12:18:45.449Z,27.68
2017-07-22T12:19:45.432Z,27.69
2017-07-22T12:20:45.420Z,27.74
2017-07-22T12:21:45.416Z,27.74
2017-07-22T12:22:45.390Z,27.83
2017-07-22T12:23:45.377Z,27.83
2017-07-22T12:24:45.357Z,27.77
2017-07-22T12:25:45.357Z,27.76
2017-07-22T12:26:45.341Z,27.74
2017-07-22T12:27:45.318Z,27.9
2017-07-22T12:28:45.313Z,27.83
2017-07-22T12:29:45.294Z,27.88
2017-07-22T12:30:45.273Z,27.74
2017-07-22T12:31:45.265Z,27.78
2017-07-22T12:32:45.245Z,27.69
2017-07-22T12:33:45.231Z,27.63
2017-07-22T12:34:45.220Z,27.63
2017-07-22T12:35:45.212Z,27.49
2017-07-22T12:36:59.798Z,27.59
2017-07-22T12:37:45.176Z,27.55
2017-07-22T12:38:45.165Z,27.52
2017-07-22T12:39:45.211Z,27.61
2017-07-22T12:40:45.136Z,27.61
2017-07-22T12:41:45.123Z,27.52
2017-07-22T12:42:44.829Z,27.61
2017-07-22T12:43:45.092Z,27.5
2017-07-22T12:44:45.078Z,27.55
2017-07-22T12:45:44.756Z,27.46
2017-07-22T12:46:45.047Z,27.42
2017-07-22T12:47:45.032Z,27.38
2017-07-22T12:48:44.722Z,27.34
2017-07-22T12:49:45.000Z,27.31
2017-07-22T12:50:45.194Z,27.33
2017-07-22T12:51:44.970Z,27.38
2017-07-22T12:52:44.953Z,27.46
2017-07-22T12:53:44.947Z,27.49
2017-07-22T12:54:44.937Z,27.38
2017-07-22T12:55:44.910Z,27.43